sensor_id;sensor_type;location;lat;lon;timestamp;pressure;altitude;pressure_sealevel;temperature;humidity
24746;BME280;12845;52.042;6.838;2023-04-08T00:00:17;-18102.47;;;2.78;100.00
24746;BME280;12845;52.042;6.838;2023-04-08T00:02:43;-18102.59;;;2.78;100.00
24746;BME280;12845;52.042;6.838;2023-04-08T00:05:08;-18100.69;;;2.71;100.00
24746;BME280;12845;52.042;6.838;2023-04-08T00:07:33;-18098.59;;;2.63;100.00
24746;BME280;12845;52.042;6.838;2023-04-08T00:09:59;-18101.22;;;2.73;100.00
24746;BME280;12845;52.042;6.838;2023-04-08T00:12:24;-18099.28;;;2.66;100.00
24746;BME280;12845;52.042;6.838;2023-04-08T00:14:50;-18097.50;;;2.59;100.00
24746;BME280;12845;52.042;6.838;2023-04-08T00:17:15;-18101.09;;;2.72;100.00
24746;BME280;12845;52.042;6.838;2023-04-08T00:19:42;-18105.38;;;2.88;100.00
24746;BME280;12845;52.042;6.838;2023-04-08T00:22:07;-18107.31;;;2.96;100.00
24746;BME280;12845;52.042;6.838;2023-04-08T00:24:33;-18109.53;;;3.04;100.00
24746;BME280;12845;52.042;6.838;2023-04-08T00:26:58;-18110.34;;;3.07;100.00
24746;BME280;12845;52.042;6.838;2023-04-08T00:29:25;-18111.88;;;3.12;100.00
24746;BME280;12845;52.042;6.838;2023-04-08T00:31:50;-18106.75;;;2.93;100.00
24746;BME280;12845;52.042;6.838;2023-04-08T00:34:16;-18107.72;;;2.97;100.00
24746;BME280;12845;52.042;6.838;2023-04-08T00:36:42;-18111.31;;;3.10;100.00
24746;BME280;12845;52.042;6.838;2023-04-08T00:39:07;-18109.78;;;3.05;100.00
24746;BME280;12845;52.042;6.838;2023-04-08T00:41:33;-18110.22;;;3.06;100.00
24746;BME280;12845;52.042;6.838;2023-04-08T00:44:00;-18111.19;;;3.10;100.00
24746;BME280;12845;52.042;6.838;2023-04-08T00:46:25;-18112.84;;;3.16;100.00
24746;BME280;12845;52.042;6.838;2023-04-08T00:48:51;-18112.00;;;3.13;100.00
24746;BME280;12845;52.042;6.838;2023-04-08T00:51:17;-18114.91;;;3.24;100.00
24746;BME280;12845;52.042;6.838;2023-04-08T00:53:43;-18114.63;;;3.23;100.00
24746;BME280;12845;52.042;6.838;2023-04-08T00:56:08;-18113.38;;;3.18;100.00
24746;BME280;12845;52.042;6.838;2023-04-08T00:58:34;-18114.09;;;3.21;100.00
24746;BME280;12845;52.042;6.838;2023-04-08T01:03:57;-18112.44;;;3.14;100.00
24746;BME280;12845;52.042;6.838;2023-04-08T01:09:06;-18111.72;;;3.12;100.00
24746;BME280;12845;52.042;6.838;2023-04-08T01:11:33;-18109.78;;;3.05;100.00
24746;BME280;12845;52.042;6.838;2023-04-08T01:14:01;-18110.22;;;3.06;100.00
24746;BME280;12845;52.042;6.838;2023-04-08T01:16:30;-18107.16;;;2.95;100.00
24746;BME280;12845;52.042;6.838;2023-04-08T01:18:56;-18105.78;;;2.90;100.00
24746;BME280;12845;52.042;6.838;2023-04-08T01:21:23;-18108.56;;;3.00;100.00
24746;BME280;12845;52.042;6.838;2023-04-08T01:23:58;-18105.66;;;2.89;100.00
24746;BME280;12845;52.042;6.838;2023-04-08T01:26:26;-18104.53;;;2.85;100.00
24746;BME280;12845;52.042;6.838;2023-04-08T01:28:56;-18104.00;;;2.83;100.00
24746;BME280;12845;52.042;6.838;2023-04-08T01:31:23;-18101.50;;;2.74;100.00
24746;BME280;12845;52.042;6.838;2023-04-08T01:33:50;-18103.31;;;2.81;100.00
24746;BME280;12845;52.042;6.838;2023-04-08T01:36:16;-18104.69;;;2.86;100.00
24746;BME280;12845;52.042;6.838;2023-04-08T01:38:43;-18099.44;;;2.66;100.00
24746;BME280;12845;52.042;6.838;2023-04-08T01:41:09;-18097.06;;;2.58;100.00
24746;BME280;12845;52.042;6.838;2023-04-08T01:43:35;-18092.25;;;2.40;100.00
24746;BME280;12845;52.042;6.838;2023-04-08T01:46:03;-18094.44;;;2.48;100.00
24746;BME280;12845;52.042;6.838;2023-04-08T01:48:30;-18096.09;;;2.54;100.00
24746;BME280;12845;52.042;6.838;2023-04-08T01:50:55;-18095.56;;;2.52;100.00
24746;BME280;12845;52.042;6.838;2023-04-08T01:53:21;-18091.69;;;2.38;100.00
24746;BME280;12845;52.042;6.838;2023-04-08T01:55:51;-18089.75;;;2.31;100.00
24746;BME280;12845;52.042;6.838;2023-04-08T01:58:20;-18087.81;;;2.23;100.00
24746;BME280;12845;52.042;6.838;2023-04-08T02:00:46;-18088.78;;;2.27;100.00
24746;BME280;12845;52.042;6.838;2023-04-08T02:03:13;-18088.50;;;2.26;100.00
24746;BME280;12845;52.042;6.838;2023-04-08T02:05:41;-18087.13;;;2.21;100.00
24746;BME280;12845;52.042;6.838;2023-04-08T02:08:06;-18086.00;;;2.17;100.00
24746;BME280;12845;52.042;6.838;2023-04-08T02:10:32;-18084.63;;;2.12;100.00
24746;BME280;12845;52.042;6.838;2023-04-08T02:12:57;-18084.22;;;2.10;100.00
24746;BME280;12845;52.042;6.838;2023-04-08T02:15:23;-18081.88;;;2.01;100.00
24746;BME280;12845;52.042;6.838;2023-04-08T02:17:59;-18078.81;;;1.90;100.00
24746;BME280;12845;52.042;6.838;2023-04-08T02:20:36;-18074.53;;;1.74;100.00
24746;BME280;12845;52.042;6.838;2023-04-08T02:23:03;-18077.56;;;1.86;100.00
24746;BME280;12845;52.042;6.838;2023-04-08T02:25:33;-18077.84;;;1.87;100.00
24746;BME280;12845;52.042;6.838;2023-04-08T02:28:02;-18078.25;;;1.88;100.00
24746;BME280;12845;52.042;6.838;2023-04-08T02:30:29;-18078.00;;;1.87;100.00
24746;BME280;12845;52.042;6.838;2023-04-08T02:32:55;-18075.78;;;1.79;100.00
24746;BME280;12845;52.042;6.838;2023-04-08T02:35:22;-18075.09;;;1.76;100.00
24746;BME280;12845;52.042;6.838;2023-04-08T02:37:49;-18075.78;;;1.79;100.00
24746;BME280;12845;52.042;6.838;2023-04-08T02:40:31;-18075.63;;;1.78;100.00
24746;BME280;12845;52.042;6.838;2023-04-08T02:42:58;-18075.22;;;1.77;100.00
24746;BME280;12845;52.042;6.838;2023-04-08T02:45:31;-18074.53;;;1.74;100.00
24746;BME280;12845;52.042;6.838;2023-04-08T02:48:00;-18072.31;;;1.66;100.00
24746;BME280;12845;52.042;6.838;2023-04-08T02:50:26;-18074.38;;;1.74;100.00
24746;BME280;12845;52.042;6.838;2023-04-08T02:52:51;-18074.13;;;1.73;100.00
24746;BME280;12845;52.042;6.838;2023-04-08T02:55:17;-18072.44;;;1.67;100.00
24746;BME280;12845;52.042;6.838;2023-04-08T02:57:42;-18071.91;;;1.65;100.00
24746;BME280;12845;52.042;6.838;2023-04-08T03:00:08;-18071.75;;;1.64;100.00
24746;BME280;12845;52.042;6.838;2023-04-08T03:02:34;-18069.69;;;1.56;100.00
24746;BME280;12845;52.042;6.838;2023-04-08T03:05:00;-18070.50;;;1.60;100.00
24746;BME280;12845;52.042;6.838;2023-04-08T03:07:25;-18070.78;;;1.61;100.00
24746;BME280;12845;52.042;6.838;2023-04-08T03:09:51;-18070.38;;;1.59;100.00
24746;BME280;12845;52.042;6.838;2023-04-08T03:12:19;-18068.84;;;1.53;100.00
24746;BME280;12845;52.042;6.838;2023-04-08T03:14:44;-18065.25;;;1.40;100.00
24746;BME280;12845;52.042;6.838;2023-04-08T03:17:09;-18064.97;;;1.39;100.00
24746;BME280;12845;52.042;6.838;2023-04-08T03:19:35;-18064.44;;;1.37;100.00
24746;BME280;12845;52.042;6.838;2023-04-08T03:22:00;-18065.53;;;1.41;100.00
24746;BME280;12845;52.042;6.838;2023-04-08T03:24:25;-18063.59;;;1.34;100.00
24746;BME280;12845;52.042;6.838;2023-04-08T03:26:51;-18059.72;;;1.20;100.00
24746;BME280;12845;52.042;6.838;2023-04-08T03:29:16;-18064.44;;;1.37;100.00
24746;BME280;12845;52.042;6.838;2023-04-08T03:31:41;-18063.31;;;1.33;100.00
24746;BME280;12845;52.042;6.838;2023-04-08T03:34:07;-18063.72;;;1.34;100.00
24746;BME280;12845;52.042;6.838;2023-04-08T03:36:32;-18066.63;;;1.45;100.00
24746;BME280;12845;52.042;6.838;2023-04-08T03:38:57;-18069.13;;;1.54;100.00
24746;BME280;12845;52.042;6.838;2023-04-08T03:41:23;-18066.09;;;1.43;100.00
24746;BME280;12845;52.042;6.838;2023-04-08T03:43:48;-18065.13;;;1.40;100.00
24746;BME280;12845;52.042;6.838;2023-04-08T03:46:14;-18064.16;;;1.36;100.00
24746;BME280;12845;52.042;6.838;2023-04-08T03:48:39;-18069.28;;;1.55;100.00
24746;BME280;12845;52.042;6.838;2023-04-08T03:51:04;-18067.34;;;1.48;100.00
24746;BME280;12845;52.042;6.838;2023-04-08T03:53:30;-18067.19;;;1.47;100.00
24746;BME280;12845;52.042;6.838;2023-04-08T03:55:56;-18062.06;;;1.28;100.00
24746;BME280;12845;52.042;6.838;2023-04-08T03:58:21;-18058.63;;;1.16;100.00
24746;BME280;12845;52.042;6.838;2023-04-08T04:00:47;-18060.28;;;1.22;100.00
24746;BME280;12845;52.042;6.838;2023-04-08T04:03:12;-18061.66;;;1.27;100.00
24746;BME280;12845;52.042;6.838;2023-04-08T04:05:38;-18062.34;;;1.29;100.00
24746;BME280;12845;52.042;6.838;2023-04-08T04:08:04;-18061.38;;;1.26;100.00
24746;BME280;12845;52.042;6.838;2023-04-08T04:10:30;-18061.09;;;1.25;100.00
24746;BME280;12845;52.042;6.838;2023-04-08T04:12:55;-18062.34;;;1.29;100.00
24746;BME280;12845;52.042;6.838;2023-04-08T04:15:20;-18060.69;;;1.23;100.00
24746;BME280;12845;52.042;6.838;2023-04-08T04:17:49;-18059.16;;;1.18;100.00
24746;BME280;12845;52.042;6.838;2023-04-08T04:20:15;-18059.44;;;1.19;100.00
24746;BME280;12845;52.042;6.838;2023-04-08T04:22:40;-18060.69;;;1.23;100.00
24746;BME280;12845;52.042;6.838;2023-04-08T04:25:06;-18060.69;;;1.23;100.00
24746;BME280;12845;52.042;6.838;2023-04-08T04:27:32;-18054.59;;;1.01;100.00
24746;BME280;12845;52.042;6.838;2023-04-08T04:29:57;-18054.47;;;1.00;100.00
24746;BME280;12845;52.042;6.838;2023-04-08T04:32:22;-18057.38;;;1.11;100.00
24746;BME280;12845;52.042;6.838;2023-04-08T04:34:48;-18053.63;;;0.97;100.00
24746;BME280;12845;52.042;6.838;2023-04-08T04:37:13;-18055.00;;;1.02;100.00
24746;BME280;12845;52.042;6.838;2023-04-08T04:39:38;-18056.94;;;1.09;100.00
24746;BME280;12845;52.042;6.838;2023-04-08T04:42:05;-18058.47;;;1.15;100.00
24746;BME280;12845;52.042;6.838;2023-04-08T04:44:30;-18056.13;;;1.06;100.00
24746;BME280;12845;52.042;6.838;2023-04-08T04:46:56;-18055.84;;;1.05;100.00
24746;BME280;12845;52.042;6.838;2023-04-08T04:49:21;-18056.13;;;1.06;100.00
24746;BME280;12845;52.042;6.838;2023-04-08T04:51:46;-18056.94;;;1.09;100.00
24746;BME280;12845;52.042;6.838;2023-04-08T04:54:12;-18058.88;;;1.17;100.00
24746;BME280;12845;52.042;6.838;2023-04-08T04:56:37;-18058.63;;;1.16;100.00
24746;BME280;12845;52.042;6.838;2023-04-08T04:59:02;-18057.78;;;1.12;100.00
24746;BME280;12845;52.042;6.838;2023-04-08T05:01:29;-18059.72;;;1.20;100.00
24746;BME280;12845;52.042;6.838;2023-04-08T05:03:54;-18061.94;;;1.28;100.00
24746;BME280;12845;52.042;6.838;2023-04-08T05:06:22;-18063.59;;;1.34;100.00
24746;BME280;12845;52.042;6.838;2023-04-08T05:08:47;-18065.25;;;1.40;100.00
24746;BME280;12845;52.042;6.838;2023-04-08T05:11:12;-18067.47;;;1.48;100.00
24746;BME280;12845;52.042;6.838;2023-04-08T05:13:38;-18068.44;;;1.52;100.00
24746;BME280;12845;52.042;6.838;2023-04-08T05:16:03;-18069.69;;;1.56;100.00
24746;BME280;12845;52.042;6.838;2023-04-08T05:18:29;-18069.41;;;1.55;100.00
24746;BME280;12845;52.042;6.838;2023-04-08T05:20:54;-18071.91;;;1.65;100.00
24746;BME280;12845;52.042;6.838;2023-04-08T05:23:19;-18072.44;;;1.67;100.00
24746;BME280;12845;52.042;6.838;2023-04-08T05:25:45;-18074.94;;;1.76;100.00
24746;BME280;12845;52.042;6.838;2023-04-08T05:28:10;-18076.31;;;1.81;100.00
24746;BME280;12845;52.042;6.838;2023-04-08T05:30:36;-18078.41;;;1.89;100.00
24746;BME280;12845;52.042;6.838;2023-04-08T05:33:01;-18078.41;;;1.89;100.00
24746;BME280;12845;52.042;6.838;2023-04-08T05:35:27;-18079.94;;;1.94;100.00
24746;BME280;12845;52.042;6.838;2023-04-08T05:37:53;-18082.13;;;2.02;100.00
24746;BME280;12845;52.042;6.838;2023-04-08T05:40:18;-18082.28;;;2.03;100.00
24746;BME280;12845;52.042;6.838;2023-04-08T05:42:44;-18085.31;;;2.14;100.00
24746;BME280;12845;52.042;6.838;2023-04-08T05:45:09;-18087.81;;;2.23;100.00
24746;BME280;12845;52.042;6.838;2023-04-08T05:47:35;-18090.28;;;2.33;100.00
24746;BME280;12845;52.042;6.838;2023-04-08T05:50:00;-18090.84;;;2.35;100.00
24746;BME280;12845;52.042;6.838;2023-04-08T05:52:26;-18091.81;;;2.38;100.00
24746;BME280;12845;52.042;6.838;2023-04-08T05:54:51;-18091.81;;;2.38;100.00
24746;BME280;12845;52.042;6.838;2023-04-08T05:57:16;-18094.16;;;2.47;100.00
24746;BME280;12845;52.042;6.838;2023-04-08T05:59:42;-18097.34;;;2.59;100.00
24746;BME280;12845;52.042;6.838;2023-04-08T06:02:07;-18099.69;;;2.67;100.00
24746;BME280;12845;52.042;6.838;2023-04-08T06:04:33;-18100.41;;;2.70;100.00
24746;BME280;12845;52.042;6.838;2023-04-08T06:06:58;-18100.94;;;2.72;100.00
24746;BME280;12845;52.042;6.838;2023-04-08T06:09:25;-18100.94;;;2.72;100.00
24746;BME280;12845;52.042;6.838;2023-04-08T06:11:51;-18101.91;;;2.76;100.00
24746;BME280;12845;52.042;6.838;2023-04-08T06:14:16;-18104.53;;;2.85;100.00
24746;BME280;12845;52.042;6.838;2023-04-08T06:16:42;-18107.59;;;2.97;100.00
24746;BME280;12845;52.042;6.838;2023-04-08T06:19:07;-18110.34;;;3.07;100.00
24746;BME280;12845;52.042;6.838;2023-04-08T06:21:32;-18113.66;;;3.19;100.00
24746;BME280;12845;52.042;6.838;2023-04-08T06:23:58;-18117.13;;;3.32;100.00
24746;BME280;12845;52.042;6.838;2023-04-08T06:26:23;-18117.13;;;3.32;100.00
24746;BME280;12845;52.042;6.838;2023-04-08T06:28:48;-18117.69;;;3.34;100.00
24746;BME280;12845;52.042;6.838;2023-04-08T06:31:14;-18117.94;;;3.35;100.00
24746;BME280;12845;52.042;6.838;2023-04-08T06:33:40;-18118.91;;;3.38;100.00
24746;BME280;12845;52.042;6.838;2023-04-08T06:36:06;-18120.84;;;3.46;100.00
24746;BME280;12845;52.042;6.838;2023-04-08T06:38:32;-18122.94;;;3.53;100.00
24746;BME280;12845;52.042;6.838;2023-04-08T06:41:04;-18125.41;;;3.63;100.00
24746;BME280;12845;52.042;6.838;2023-04-08T06:43:31;-18127.34;;;3.70;100.00
24746;BME280;12845;52.042;6.838;2023-04-08T06:45:56;-18130.66;;;3.82;100.00
24746;BME280;12845;52.042;6.838;2023-04-08T06:48:23;-18133.84;;;3.94;100.00
24746;BME280;12845;52.042;6.838;2023-04-08T06:50:53;-18135.50;;;4.00;100.00
24746;BME280;12845;52.042;6.838;2023-04-08T06:53:18;-18136.88;;;4.05;100.00
24746;BME280;12845;52.042;6.838;2023-04-08T06:55:43;-18139.09;;;4.13;100.00
24746;BME280;12845;52.042;6.838;2023-04-08T06:58:09;-18140.19;;;4.17;100.00
24746;BME280;12845;52.042;6.838;2023-04-08T07:00:34;-18141.56;;;4.22;100.00
24746;BME280;12845;52.042;6.838;2023-04-08T07:03:01;-18142.97;;;4.27;100.00
24746;BME280;12845;52.042;6.838;2023-04-08T07:05:26;-18144.34;;;4.33;100.00
24746;BME280;12845;52.042;6.838;2023-04-08T07:07:51;-18147.38;;;4.44;100.00
24746;BME280;12845;52.042;6.838;2023-04-08T07:10:17;-18150.69;;;4.56;100.00
24746;BME280;12845;52.042;6.838;2023-04-08T07:12:42;-18153.47;;;4.66;100.00
24746;BME280;12845;52.042;6.838;2023-04-08T07:15:08;-18158.44;;;4.85;100.00
24746;BME280;12845;52.042;6.838;2023-04-08T07:17:33;-18164.09;;;5.06;100.00
24746;BME280;12845;52.042;6.838;2023-04-08T07:19:59;-18166.28;;;5.14;100.00
24746;BME280;12845;52.042;6.838;2023-04-08T07:22:24;-18166.97;;;5.16;100.00
24746;BME280;12845;52.042;6.838;2023-04-08T07:24:49;-18169.59;;;5.26;100.00
24746;BME280;12845;52.042;6.838;2023-04-08T07:27:15;-18173.34;;;5.40;100.00
24746;BME280;12845;52.042;6.838;2023-04-08T07:29:41;-18177.88;;;5.57;100.00
24746;BME280;12845;52.042;6.838;2023-04-08T07:32:06;-18180.78;;;5.68;100.00
24746;BME280;12845;52.042;6.838;2023-04-08T07:34:34;-18176.38;;;5.51;100.00
24746;BME280;12845;52.042;6.838;2023-04-08T07:37:00;-18181.19;;;5.69;100.00
24746;BME280;12845;52.042;6.838;2023-04-08T07:39:26;-18183.81;;;5.79;100.00
24746;BME280;12845;52.042;6.838;2023-04-08T07:41:51;-18185.34;;;5.84;100.00
24746;BME280;12845;52.042;6.838;2023-04-08T07:44:16;-18187.41;;;5.92;100.00
24746;BME280;12845;52.042;6.838;2023-04-08T07:46:44;-18189.06;;;5.98;100.00
24746;BME280;12845;52.042;6.838;2023-04-08T07:49:10;-18191.81;;;6.08;100.00
24746;BME280;12845;52.042;6.838;2023-04-08T07:51:36;-18190.03;;;6.02;100.00
24746;BME280;12845;52.042;6.838;2023-04-08T07:54:01;-18192.94;;;6.13;100.00
24746;BME280;12845;52.042;6.838;2023-04-08T07:56:26;-18193.06;;;6.13;100.00
24746;BME280;12845;52.042;6.838;2023-04-08T07:58:52;-18195.97;;;6.24;100.00
24746;BME280;12845;52.042;6.838;2023-04-08T08:01:19;-18197.06;;;6.28;100.00
24746;BME280;12845;52.042;6.838;2023-04-08T08:03:47;-18197.47;;;6.29;100.00
24746;BME280;12845;52.042;6.838;2023-04-08T08:06:12;-18199.69;;;6.38;100.00
24746;BME280;12845;52.042;6.838;2023-04-08T08:08:38;-18202.59;;;6.48;100.00
24746;BME280;12845;52.042;6.838;2023-04-08T08:11:03;-18205.88;;;6.61;100.00
24746;BME280;12845;52.042;6.838;2023-04-08T08:13:28;-18209.59;;;6.74;100.00
24746;BME280;12845;52.042;6.838;2023-04-08T08:15:54;-18215.53;;;6.96;100.00
24746;BME280;12845;52.042;6.838;2023-04-08T08:18:19;-18219.81;;;7.12;100.00
24746;BME280;12845;52.042;6.838;2023-04-08T08:20:45;-18219.41;;;7.11;100.00
24746;BME280;12845;52.042;6.838;2023-04-08T08:23:11;-18219.25;;;7.10;100.00
24746;BME280;12845;52.042;6.838;2023-04-08T08:25:36;-18219.66;;;7.12;100.00
24746;BME280;12845;52.042;6.838;2023-04-08T08:28:01;-18219.41;;;7.11;100.00
24746;BME280;12845;52.042;6.838;2023-04-08T08:30:27;-18219.66;;;7.12;100.00
24746;BME280;12845;52.042;6.838;2023-04-08T08:32:52;-18221.47;;;7.18;100.00
24746;BME280;12845;52.042;6.838;2023-04-08T08:35:18;-18222.56;;;7.22;100.00
24746;BME280;12845;52.042;6.838;2023-04-08T08:37:43;-18224.34;;;7.29;100.00
24746;BME280;12845;52.042;6.838;2023-04-08T08:40:09;-18223.81;;;7.27;100.00
24746;BME280;12845;52.042;6.838;2023-04-08T08:42:35;-18223.81;;;7.27;100.00
24746;BME280;12845;52.042;6.838;2023-04-08T08:45:02;-18225.47;;;7.33;100.00
24746;BME280;12845;52.042;6.838;2023-04-08T08:47:27;-18228.06;;;7.43;100.00
24746;BME280;12845;52.042;6.838;2023-04-08T08:49:53;-18228.22;;;7.43;100.00
24746;BME280;12845;52.042;6.838;2023-04-08T08:52:18;-18226.28;;;7.36;100.00
24746;BME280;12845;52.042;6.838;2023-04-08T08:54:44;-18229.88;;;7.50;100.00
24746;BME280;12845;52.042;6.838;2023-04-08T08:57:19;-18230.69;;;7.53;100.00
24746;BME280;12845;52.042;6.838;2023-04-08T08:59:46;-18231.78;;;7.57;100.00
24746;BME280;12845;52.042;6.838;2023-04-08T09:02:30;-18234.28;;;7.66;100.00
24746;BME280;12845;52.042;6.838;2023-04-08T09:05:02;-18232.47;;;7.59;100.00
24746;BME280;12845;52.042;6.838;2023-04-08T09:07:30;-18235.38;;;7.70;100.00
24746;BME280;12845;52.042;6.838;2023-04-08T09:09:56;-18238.13;;;7.80;100.00
24746;BME280;12845;52.042;6.838;2023-04-08T09:12:24;-18242.00;;;7.95;100.00
24746;BME280;12845;52.042;6.838;2023-04-08T09:14:50;-18240.59;;;7.89;100.00
24746;BME280;12845;52.042;6.838;2023-04-08T09:17:16;-18243.91;;;8.02;100.00
24746;BME280;12845;52.042;6.838;2023-04-08T09:20:08;-18248.72;;;8.20;100.00
24746;BME280;12845;52.042;6.838;2023-04-08T09:22:55;-18248.59;;;8.19;100.00
24746;BME280;12845;52.042;6.838;2023-04-08T09:25:29;-18250.53;;;8.26;100.00
24746;BME280;12845;52.042;6.838;2023-04-08T09:27:55;-18249.16;;;8.21;100.00
24746;BME280;12845;52.042;6.838;2023-04-08T09:30:22;-18252.59;;;8.34;100.00
24746;BME280;12845;52.042;6.838;2023-04-08T09:32:55;-18254.38;;;8.41;100.00
24746;BME280;12845;52.042;6.838;2023-04-08T09:35:22;-18258.09;;;8.54;100.00
24746;BME280;12845;52.042;6.838;2023-04-08T09:37:48;-18259.06;;;8.58;100.00
24746;BME280;12845;52.042;6.838;2023-04-08T09:40:14;-18261.28;;;8.66;100.00
24746;BME280;12845;52.042;6.838;2023-04-08T09:42:44;-18261.28;;;8.66;100.00
24746;BME280;12845;52.042;6.838;2023-04-08T09:45:10;-18263.59;;;8.75;100.00
24746;BME280;12845;52.042;6.838;2023-04-08T09:47:43;-18267.88;;;8.91;100.00
24746;BME280;12845;52.042;6.838;2023-04-08T09:50:12;-18273.50;;;9.12;100.00
24746;BME280;12845;52.042;6.838;2023-04-08T09:52:43;-18273.66;;;9.12;100.00
24746;BME280;12845;52.042;6.838;2023-04-08T09:55:11;-18272.28;;;9.07;100.00
24746;BME280;12845;52.042;6.838;2023-04-08T09:57:43;-18276.00;;;9.21;100.00
24746;BME280;12845;52.042;6.838;2023-04-08T10:00:14;-18275.84;;;9.20;100.00
24746;BME280;12845;52.042;6.838;2023-04-08T10:05:13;-18278.47;;;9.30;100.00
24746;BME280;12845;52.042;6.838;2023-04-08T10:07:40;-18278.88;;;9.32;100.00
24746;BME280;12845;52.042;6.838;2023-04-08T10:10:07;-18283.69;;;9.49;100.00
24746;BME280;12845;52.042;6.838;2023-04-08T10:12:35;-18289.19;;;9.70;100.00
24746;BME280;12845;52.042;6.838;2023-04-08T10:20:43;-18294.13;;;9.88;100.00
24746;BME280;12845;52.042;6.838;2023-04-08T10:23:10;-18295.94;;;9.95;100.00
24746;BME280;12845;52.042;6.838;2023-04-08T10:25:38;-18296.88;;;9.99;100.00
24746;BME280;12845;52.042;6.838;2023-04-08T10:33:38;-18301.16;;;10.14;100.00
24746;BME280;12845;52.042;6.838;2023-04-08T10:38:31;-18300.06;;;10.10;100.00
24746;BME280;12845;52.042;6.838;2023-04-08T10:40:56;-18308.03;;;10.40;100.00
24746;BME280;12845;52.042;6.838;2023-04-08T10:43:22;-18306.94;;;10.36;100.00
24746;BME280;12845;52.042;6.838;2023-04-08T10:45:48;-18308.31;;;10.41;100.00
24746;BME280;12845;52.042;6.838;2023-04-08T10:48:22;-18310.50;;;10.49;100.00
24746;BME280;12845;52.042;6.838;2023-04-08T10:50:57;-18311.06;;;10.51;100.00
24746;BME280;12845;52.042;6.838;2023-04-08T10:53:31;-18316.13;;;10.70;100.00
24746;BME280;12845;52.042;6.838;2023-04-08T10:56:05;-18324.66;;;11.02;100.00
24746;BME280;12845;52.042;6.838;2023-04-08T10:58:31;-18322.03;;;10.92;100.00
24746;BME280;12845;52.042;6.838;2023-04-08T11:01:02;-18321.75;;;10.91;100.00
24746;BME280;12845;52.042;6.838;2023-04-08T11:03:31;-18322.03;;;10.92;100.00
24746;BME280;12845;52.042;6.838;2023-04-08T11:05:58;-18326.03;;;11.07;100.00
24746;BME280;12845;52.042;6.838;2023-04-08T11:08:31;-18327.25;;;11.12;100.00
24746;BME280;12845;52.042;6.838;2023-04-08T11:10:58;-18333.16;;;11.34;100.00
24746;BME280;12845;52.042;6.838;2023-04-08T11:13:26;-18336.19;;;11.45;100.00
24746;BME280;12845;52.042;6.838;2023-04-08T11:15:51;-18343.19;;;11.71;100.00
24746;BME280;12845;52.042;6.838;2023-04-08T11:18:17;-18349.50;;;11.94;100.00
24746;BME280;12845;52.042;6.838;2023-04-08T11:20:43;-18348.69;;;11.91;100.00
24746;BME280;12845;52.042;6.838;2023-04-08T11:23:15;-18348.00;;;11.89;100.00
24746;BME280;12845;52.042;6.838;2023-04-08T11:25:45;-18347.56;;;11.87;100.00
24746;BME280;12845;52.042;6.838;2023-04-08T11:28:13;-18351.41;;;12.02;100.00
24746;BME280;12845;52.042;6.838;2023-04-08T11:30:39;-18345.09;;;11.78;100.00
24746;BME280;12845;52.042;6.838;2023-04-08T11:33:08;-18346.19;;;11.82;100.00
24746;BME280;12845;52.042;6.838;2023-04-08T11:35:38;-18349.38;;;11.94;100.00
24746;BME280;12845;52.042;6.838;2023-04-08T11:38:04;-18349.78;;;11.95;100.00
24746;BME280;12845;52.042;6.838;2023-04-08T11:40:30;-18349.22;;;11.93;100.00
24746;BME280;12845;52.042;6.838;2023-04-08T11:42:55;-18349.91;;;11.96;100.00
24746;BME280;12845;52.042;6.838;2023-04-08T11:45:21;-18349.22;;;11.93;100.00
24746;BME280;12845;52.042;6.838;2023-04-08T11:47:47;-18352.53;;;12.06;100.00
24746;BME280;12845;52.042;6.838;2023-04-08T11:50:21;-18351.16;;;12.01;100.00
24746;BME280;12845;52.042;6.838;2023-04-08T11:52:48;-18352.53;;;12.06;100.00
24746;BME280;12845;52.042;6.838;2023-04-08T11:55:25;-18351.16;;;12.01;100.00
24746;BME280;12845;52.042;6.838;2023-04-08T11:57:50;-18351.16;;;12.01;100.00
24746;BME280;12845;52.042;6.838;2023-04-08T12:00:17;-18354.03;;;12.11;100.00
24746;BME280;12845;52.042;6.838;2023-04-08T12:02:43;-18354.84;;;12.14;100.00
24746;BME280;12845;52.042;6.838;2023-04-08T12:05:08;-18358.56;;;12.28;100.00
24746;BME280;12845;52.042;6.838;2023-04-08T12:07:34;-18361.03;;;12.37;100.00
24746;BME280;12845;52.042;6.838;2023-04-08T12:09:59;-18359.94;;;12.33;100.00
24746;BME280;12845;52.042;6.838;2023-04-08T12:12:25;-18356.78;;;12.22;100.00
24746;BME280;12845;52.042;6.838;2023-04-08T12:14:51;-18355.25;;;12.16;100.00
24746;BME280;12845;52.042;6.838;2023-04-08T12:17:17;-18353.06;;;12.08;100.00
24746;BME280;12845;52.042;6.838;2023-04-08T12:19:42;-18353.63;;;12.10;100.00
24746;BME280;12845;52.042;6.838;2023-04-08T12:22:08;-18350.03;;;11.96;100.00
24746;BME280;12845;52.042;6.838;2023-04-08T12:24:34;-18350.59;;;11.99;100.00
24746;BME280;12845;52.042;6.838;2023-04-08T12:27:00;-18351.69;;;12.03;100.00
24746;BME280;12845;52.042;6.838;2023-04-08T12:29:26;-18354.72;;;12.14;100.00
24746;BME280;12845;52.042;6.838;2023-04-08T12:31:52;-18357.47;;;12.24;100.00
24746;BME280;12845;52.042;6.838;2023-04-08T12:34:17;-18355.53;;;12.17;100.00
24746;BME280;12845;52.042;6.838;2023-04-08T12:36:43;-18358.28;;;12.27;100.00
24746;BME280;12845;52.042;6.838;2023-04-08T12:39:08;-18359.38;;;12.31;100.00
24746;BME280;12845;52.042;6.838;2023-04-08T12:41:34;-18358.28;;;12.27;100.00
24746;BME280;12845;52.042;6.838;2023-04-08T12:43:59;-18359.09;;;12.30;100.00
24746;BME280;12845;52.042;6.838;2023-04-08T12:46:25;-18358.00;;;12.26;100.00
24746;BME280;12845;52.042;6.838;2023-04-08T12:48:50;-18361.16;;;12.38;100.00
24746;BME280;12845;52.042;6.838;2023-04-08T12:51:15;-18363.50;;;12.47;100.00
24746;BME280;12845;52.042;6.838;2023-04-08T12:53:41;-18366.50;;;12.58;100.00
24746;BME280;12845;52.042;6.838;2023-04-08T12:56:06;-18360.75;;;12.36;100.00
24746;BME280;12845;52.042;6.838;2023-04-08T12:58:32;-18361.44;;;12.39;100.00
24746;BME280;12845;52.042;6.838;2023-04-08T13:00:57;-18359.94;;;12.33;100.00
24746;BME280;12845;52.042;6.838;2023-04-08T13:03:22;-18359.94;;;12.33;100.00
24746;BME280;12845;52.042;6.838;2023-04-08T13:05:48;-18359.94;;;12.33;100.00